Main page
METAR-TAF:

METAR-TAF

Airports :

Dresden Airport

Dresden, Germany

latitude: 51-08N, longitude: 013-45E, elevation: 230 m

Current weather observation

The report was made 22 minutes ago, at 07:50 UTC
Wind 13 kt from the West, varying between Southwest and Northwest
Temperature 13°C
Humidity 62%
Pressure 1020 hPa
Visibility 10 km or more
Few clouds at a height of 3200 ft

METAR: EDDC 220750Z 27013KT 220V310 9999 FEW032 13/06 Q1020 TEMPO 25015G25KT

Time: 10:12 (08:12 UTC)

Forecast

The report was made 3 hours and 12 minutes ago, at 05:00 UTC
Forecast valid from 22 at 06 UTC to 23 at 06 UTC
Wind 10 kt from the Southwest with gusts up to 20 kt
Visibility 10 km or more
Few clouds at a height of 4000 ft
Temporary
from 22 at 07 UTC to 22 at 15 UTC
Wind 15 kt from the West with gusts up to 25 kt
Becoming
from 22 at 15 UTC to 22 at 18 UTC
Wind 5 kt from the West/Southwest

TAF: EDDC 220500Z 2206/2306 22010G20KT 9999 FEW040 TEMPO 2207/2215 27015G25KT BECMG 2215/2218 25005KT

Weather observations and forecasts of more than 4000 airports (METAR and TAF reports).

The available stations are represented by yellow and red dots on the map.

Hover mouse over dot to see the name of the station.

Then click to see weather observations and forecasts.

To change the map : click on the green buttons with a black cross to zoom in, on the green button with a dash to zoom out, or on the green arrows for adjacent maps.


METAR-TAF: